sensor_id;sensor_type;location;lat;lon;timestamp;temperature;humidity
40434;DHT22;26146;51.114;5.654;2023-05-10T00:02:04;14.90;99.90
40434;DHT22;26146;51.114;5.654;2023-05-10T00:06:06;15.00;99.90
40434;DHT22;26146;51.114;5.654;2023-05-10T00:10:07;15.20;99.90
40434;DHT22;26146;51.114;5.654;2023-05-10T00:14:08;15.20;99.90
40434;DHT22;26146;51.114;5.654;2023-05-10T00:18:10;15.20;99.90
40434;DHT22;26146;51.114;5.654;2023-05-10T00:22:11;15.20;99.90
40434;DHT22;26146;51.114;5.654;2023-05-10T00:26:12;15.20;99.90
40434;DHT22;26146;51.114;5.654;2023-05-10T00:30:13;15.30;99.90
40434;DHT22;26146;51.114;5.654;2023-05-10T00:34:15;15.20;99.90
40434;DHT22;26146;51.114;5.654;2023-05-10T00:38:16;15.30;99.90
40434;DHT22;26146;51.114;5.654;2023-05-10T00:42:18;15.30;99.90
40434;DHT22;26146;51.114;5.654;2023-05-10T00:46:19;15.30;99.90
40434;DHT22;26146;51.114;5.654;2023-05-10T00:50:22;15.30;99.90
40434;DHT22;26146;51.114;5.654;2023-05-10T00:54:23;15.30;99.90
40434;DHT22;26146;51.114;5.654;2023-05-10T00:58:25;15.40;99.90
40434;DHT22;26146;51.114;5.654;2023-05-10T01:02:29;15.20;99.90
40434;DHT22;26146;51.114;5.654;2023-05-10T01:06:30;15.20;99.90
40434;DHT22;26146;51.114;5.654;2023-05-10T01:10:32;15.30;99.90
40434;DHT22;26146;51.114;5.654;2023-05-10T01:14:33;15.30;99.90
40434;DHT22;26146;51.114;5.654;2023-05-10T01:18:41;15.30;99.90
40434;DHT22;26146;51.114;5.654;2023-05-10T01:23:14;15.30;99.90
40434;DHT22;26146;51.114;5.654;2023-05-10T01:40:42;15.40;99.90
40434;DHT22;26146;51.114;5.654;2023-05-10T01:45:24;15.30;99.90
40434;DHT22;26146;51.114;5.654;2023-05-10T01:49:30;15.40;99.90
40434;DHT22;26146;51.114;5.654;2023-05-10T01:53:34;15.30;99.90
40434;DHT22;26146;51.114;5.654;2023-05-10T01:57:37;15.30;99.90
40434;DHT22;26146;51.114;5.654;2023-05-10T02:01:43;15.40;99.90
40434;DHT22;26146;51.114;5.654;2023-05-10T02:05:46;15.30;99.90
40434;DHT22;26146;51.114;5.654;2023-05-10T02:09:49;15.30;99.90
40434;DHT22;26146;51.114;5.654;2023-05-10T02:13:51;15.40;99.90
40434;DHT22;26146;51.114;5.654;2023-05-10T02:17:55;15.40;99.90
40434;DHT22;26146;51.114;5.654;2023-05-10T02:21:57;15.40;99.90
40434;DHT22;26146;51.114;5.654;2023-05-10T02:26:00;15.40;99.90
40434;DHT22;26146;51.114;5.654;2023-05-10T02:30:03;15.30;99.90
40434;DHT22;26146;51.114;5.654;2023-05-10T02:34:07;15.40;99.90
40434;DHT22;26146;51.114;5.654;2023-05-10T02:38:09;15.20;99.90
40434;DHT22;26146;51.114;5.654;2023-05-10T02:42:16;15.20;99.90
40434;DHT22;26146;51.114;5.654;2023-05-10T02:46:18;15.00;99.90
40434;DHT22;26146;51.114;5.654;2023-05-10T02:50:20;15.20;99.90
40434;DHT22;26146;51.114;5.654;2023-05-10T02:54:29;15.20;99.90
40434;DHT22;26146;51.114;5.654;2023-05-10T02:58:31;15.10;99.90
40434;DHT22;26146;51.114;5.654;2023-05-10T03:02:32;15.00;99.90
40434;DHT22;26146;51.114;5.654;2023-05-10T03:06:33;15.10;99.90
40434;DHT22;26146;51.114;5.654;2023-05-10T03:10:41;15.00;99.90
40434;DHT22;26146;51.114;5.654;2023-05-10T03:15:01;15.00;99.90
40434;DHT22;26146;51.114;5.654;2023-05-10T03:19:30;15.00;99.90
40434;DHT22;26146;51.114;5.654;2023-05-10T03:23:58;14.90;99.90
40434;DHT22;26146;51.114;5.654;2023-05-10T03:28:01;14.80;99.90
40434;DHT22;26146;51.114;5.654;2023-05-10T03:32:04;14.60;99.90
40434;DHT22;26146;51.114;5.654;2023-05-10T03:36:05;14.90;99.90
40434;DHT22;26146;51.114;5.654;2023-05-10T03:40:08;15.00;99.90
40434;DHT22;26146;51.114;5.654;2023-05-10T03:44:09;15.00;99.90
40434;DHT22;26146;51.114;5.654;2023-05-10T03:48:11;14.90;99.90
40434;DHT22;26146;51.114;5.654;2023-05-10T03:52:14;14.90;99.90
40434;DHT22;26146;51.114;5.654;2023-05-10T03:56:15;14.90;99.90
40434;DHT22;26146;51.114;5.654;2023-05-10T04:00:17;14.90;99.90
40434;DHT22;26146;51.114;5.654;2023-05-10T04:04:18;14.80;99.90
40434;DHT22;26146;51.114;5.654;2023-05-10T04:08:21;15.00;99.90
40434;DHT22;26146;51.114;5.654;2023-05-10T04:12:22;14.90;99.90
40434;DHT22;26146;51.114;5.654;2023-05-10T04:16:23;14.80;99.90
40434;DHT22;26146;51.114;5.654;2023-05-10T04:20:25;15.00;99.90
40434;DHT22;26146;51.114;5.654;2023-05-10T04:24:26;14.90;99.90
40434;DHT22;26146;51.114;5.654;2023-05-10T04:28:27;14.80;99.90
40434;DHT22;26146;51.114;5.654;2023-05-10T04:32:29;14.80;99.90
40434;DHT22;26146;51.114;5.654;2023-05-10T04:36:30;14.80;99.90
40434;DHT22;26146;51.114;5.654;2023-05-10T04:40:33;14.60;99.90
40434;DHT22;26146;51.114;5.654;2023-05-10T04:44:35;14.60;99.90
40434;DHT22;26146;51.114;5.654;2023-05-10T04:48:36;14.80;99.90
40434;DHT22;26146;51.114;5.654;2023-05-10T04:52:38;14.60;99.90
40434;DHT22;26146;51.114;5.654;2023-05-10T04:56:41;14.40;99.90
40434;DHT22;26146;51.114;5.654;2023-05-10T05:00:43;14.20;99.90
40434;DHT22;26146;51.114;5.654;2023-05-10T05:04:45;14.10;99.90
40434;DHT22;26146;51.114;5.654;2023-05-10T05:08:46;14.10;99.90
40434;DHT22;26146;51.114;5.654;2023-05-10T05:12:47;14.20;99.90
40434;DHT22;26146;51.114;5.654;2023-05-10T05:16:49;14.30;99.90
40434;DHT22;26146;51.114;5.654;2023-05-10T05:20:50;14.40;99.90
40434;DHT22;26146;51.114;5.654;2023-05-10T05:24:51;14.20;99.90
40434;DHT22;26146;51.114;5.654;2023-05-10T05:28:52;14.20;99.90
40434;DHT22;26146;51.114;5.654;2023-05-10T05:32:55;14.30;99.90
40434;DHT22;26146;51.114;5.654;2023-05-10T05:36:56;14.30;99.90
40434;DHT22;26146;51.114;5.654;2023-05-10T05:40:57;14.50;99.90
40434;DHT22;26146;51.114;5.654;2023-05-10T05:44:58;14.60;99.90
40434;DHT22;26146;51.114;5.654;2023-05-10T05:48:59;14.60;99.90
40434;DHT22;26146;51.114;5.654;2023-05-10T05:53:01;14.60;99.90
40434;DHT22;26146;51.114;5.654;2023-05-10T05:57:03;14.80;99.90
40434;DHT22;26146;51.114;5.654;2023-05-10T06:01:04;15.00;99.90
40434;DHT22;26146;51.114;5.654;2023-05-10T06:05:05;15.00;99.90
40434;DHT22;26146;51.114;5.654;2023-05-10T06:09:06;15.00;99.90
40434;DHT22;26146;51.114;5.654;2023-05-10T06:13:08;15.30;99.90
40434;DHT22;26146;51.114;5.654;2023-05-10T06:17:09;15.20;99.90
40434;DHT22;26146;51.114;5.654;2023-05-10T06:21:10;15.50;99.90
40434;DHT22;26146;51.114;5.654;2023-05-10T06:25:11;15.40;99.90
40434;DHT22;26146;51.114;5.654;2023-05-10T06:29:13;15.20;99.90
40434;DHT22;26146;51.114;5.654;2023-05-10T06:33:15;15.30;99.90
40434;DHT22;26146;51.114;5.654;2023-05-10T06:37:17;15.40;99.90
40434;DHT22;26146;51.114;5.654;2023-05-10T06:41:18;15.40;99.90
40434;DHT22;26146;51.114;5.654;2023-05-10T06:45:19;15.20;99.90
40434;DHT22;26146;51.114;5.654;2023-05-10T06:49:20;15.10;99.90
40434;DHT22;26146;51.114;5.654;2023-05-10T06:53:21;14.90;99.90
40434;DHT22;26146;51.114;5.654;2023-05-10T06:57:22;14.90;99.90
40434;DHT22;26146;51.114;5.654;2023-05-10T07:01:24;15.00;99.90
40434;DHT22;26146;51.114;5.654;2023-05-10T07:05:25;15.10;99.90
40434;DHT22;26146;51.114;5.654;2023-05-10T07:09:28;15.10;99.90
40434;DHT22;26146;51.114;5.654;2023-05-10T07:13:33;15.20;99.90
40434;DHT22;26146;51.114;5.654;2023-05-10T07:17:34;15.40;99.90
40434;DHT22;26146;51.114;5.654;2023-05-10T07:21:36;15.70;99.90
40434;DHT22;26146;51.114;5.654;2023-05-10T07:25:38;15.70;99.90
40434;DHT22;26146;51.114;5.654;2023-05-10T07:29:40;15.80;99.90
40434;DHT22;26146;51.114;5.654;2023-05-10T07:33:41;16.10;99.90
40434;DHT22;26146;51.114;5.654;2023-05-10T07:37:42;16.20;99.90
40434;DHT22;26146;51.114;5.654;2023-05-10T07:41:43;16.40;99.90
40434;DHT22;26146;51.114;5.654;2023-05-10T07:45:44;16.50;99.90
40434;DHT22;26146;51.114;5.654;2023-05-10T07:49:45;16.60;99.90
40434;DHT22;26146;51.114;5.654;2023-05-10T07:53:47;16.70;99.90
40434;DHT22;26146;51.114;5.654;2023-05-10T07:57:48;16.40;99.90
40434;DHT22;26146;51.114;5.654;2023-05-10T08:01:49;16.30;99.90
40434;DHT22;26146;51.114;5.654;2023-05-10T08:05:50;16.40;99.90
40434;DHT22;26146;51.114;5.654;2023-05-10T08:09:51;16.50;99.90
40434;DHT22;26146;51.114;5.654;2023-05-10T08:13:52;16.40;99.90
40434;DHT22;26146;51.114;5.654;2023-05-10T08:17:54;16.50;99.90
40434;DHT22;26146;51.114;5.654;2023-05-10T08:21:55;16.50;99.90
40434;DHT22;26146;51.114;5.654;2023-05-10T08:25:56;16.50;99.90
40434;DHT22;26146;51.114;5.654;2023-05-10T08:29:57;16.50;99.90
40434;DHT22;26146;51.114;5.654;2023-05-10T08:33:58;16.60;99.90
40434;DHT22;26146;51.114;5.654;2023-05-10T08:38:01;16.50;99.90
40434;DHT22;26146;51.114;5.654;2023-05-10T08:42:04;16.60;99.90
40434;DHT22;26146;51.114;5.654;2023-05-10T08:46:07;16.70;99.90
40434;DHT22;26146;51.114;5.654;2023-05-10T08:50:12;16.80;99.90
40434;DHT22;26146;51.114;5.654;2023-05-10T08:54:14;16.80;99.90
40434;DHT22;26146;51.114;5.654;2023-05-10T08:58:16;17.00;99.90
40434;DHT22;26146;51.114;5.654;2023-05-10T09:02:18;17.30;99.90
40434;DHT22;26146;51.114;5.654;2023-05-10T09:06:21;17.50;99.90
40434;DHT22;26146;51.114;5.654;2023-05-10T09:10:23;17.70;99.90
40434;DHT22;26146;51.114;5.654;2023-05-10T09:14:26;17.70;99.90
40434;DHT22;26146;51.114;5.654;2023-05-10T09:18:27;17.90;99.90
40434;DHT22;26146;51.114;5.654;2023-05-10T09:22:30;18.10;99.90
40434;DHT22;26146;51.114;5.654;2023-05-10T09:26:31;17.90;99.90
40434;DHT22;26146;51.114;5.654;2023-05-10T09:30:32;18.10;99.90
40434;DHT22;26146;51.114;5.654;2023-05-10T09:34:33;18.40;99.90
40434;DHT22;26146;51.114;5.654;2023-05-10T09:38:49;18.40;99.90
40434;DHT22;26146;51.114;5.654;2023-05-10T09:46:56;18.80;99.90
40434;DHT22;26146;51.114;5.654;2023-05-10T09:50:57;18.90;99.90
40434;DHT22;26146;51.114;5.654;2023-05-10T09:54:59;19.00;99.90
40434;DHT22;26146;51.114;5.654;2023-05-10T09:59:03;18.90;99.90
40434;DHT22;26146;51.114;5.654;2023-05-10T10:03:04;18.90;99.90
40434;DHT22;26146;51.114;5.654;2023-05-10T10:07:06;18.70;99.90
40434;DHT22;26146;51.114;5.654;2023-05-10T10:11:07;19.00;99.90
40434;DHT22;26146;51.114;5.654;2023-05-10T10:15:09;19.10;99.90
40434;DHT22;26146;51.114;5.654;2023-05-10T10:19:10;19.20;99.90
40434;DHT22;26146;51.114;5.654;2023-05-10T10:23:11;19.40;99.90
40434;DHT22;26146;51.114;5.654;2023-05-10T10:36:07;20.10;99.90
40434;DHT22;26146;51.114;5.654;2023-05-10T10:40:31;20.50;99.90
40434;DHT22;26146;51.114;5.654;2023-05-10T10:44:38;20.80;99.90
40434;DHT22;26146;51.114;5.654;2023-05-10T10:49:22;20.90;99.90
40434;DHT22;26146;51.114;5.654;2023-05-10T10:53:11;20.60;99.90
40434;DHT22;26146;51.114;5.654;2023-05-10T10:57:17;20.40;99.90
40434;DHT22;26146;51.114;5.654;2023-05-10T11:01:19;20.80;99.90
40434;DHT22;26146;51.114;5.654;2023-05-10T11:05:37;21.20;99.90
40434;DHT22;26146;51.114;5.654;2023-05-10T11:09:41;20.90;99.90
40434;DHT22;26146;51.114;5.654;2023-05-10T11:13:47;21.40;99.90
40434;DHT22;26146;51.114;5.654;2023-05-10T11:17:49;21.60;99.90
40434;DHT22;26146;51.114;5.654;2023-05-10T11:22:13;21.30;99.90
40434;DHT22;26146;51.114;5.654;2023-05-10T11:26:14;21.50;99.90
40434;DHT22;26146;51.114;5.654;2023-05-10T11:30:15;21.70;99.90
40434;DHT22;26146;51.114;5.654;2023-05-10T11:38:28;22.10;99.90
40434;DHT22;26146;51.114;5.654;2023-05-10T11:42:29;22.30;99.90
40434;DHT22;26146;51.114;5.654;2023-05-10T11:46:30;22.60;99.90
40434;DHT22;26146;51.114;5.654;2023-05-10T11:50:32;22.50;99.90
40434;DHT22;26146;51.114;5.654;2023-05-10T11:54:33;22.30;99.90
40434;DHT22;26146;51.114;5.654;2023-05-10T11:58:37;22.20;99.90
40434;DHT22;26146;51.114;5.654;2023-05-10T12:02:38;21.60;99.90
40434;DHT22;26146;51.114;5.654;2023-05-10T12:06:40;20.60;99.90
40434;DHT22;26146;51.114;5.654;2023-05-10T12:10:41;20.40;99.90
40434;DHT22;26146;51.114;5.654;2023-05-10T12:14:43;21.10;99.90
40434;DHT22;26146;51.114;5.654;2023-05-10T12:18:44;21.60;99.90
40434;DHT22;26146;51.114;5.654;2023-05-10T12:22:56;22.00;99.90
40434;DHT22;26146;51.114;5.654;2023-05-10T12:26:57;22.60;99.90
40434;DHT22;26146;51.114;5.654;2023-05-10T12:31:02;22.90;99.90
40434;DHT22;26146;51.114;5.654;2023-05-10T12:35:04;23.10;99.20
40434;DHT22;26146;51.114;5.654;2023-05-10T12:39:05;23.20;99.60
40434;DHT22;26146;51.114;5.654;2023-05-10T12:43:06;23.10;99.10
40434;DHT22;26146;51.114;5.654;2023-05-10T12:47:07;21.90;99.90
40434;DHT22;26146;51.114;5.654;2023-05-10T12:51:08;22.30;99.90
40434;DHT22;26146;51.114;5.654;2023-05-10T12:55:13;22.60;99.40
40434;DHT22;26146;51.114;5.654;2023-05-10T12:59:15;22.50;99.50
40434;DHT22;26146;51.114;5.654;2023-05-10T13:03:16;22.70;99.90
40434;DHT22;26146;51.114;5.654;2023-05-10T13:07:17;22.70;99.20
40434;DHT22;26146;51.114;5.654;2023-05-10T13:11:18;22.40;99.50
40434;DHT22;26146;51.114;5.654;2023-05-10T13:15:20;21.30;99.90
40434;DHT22;26146;51.114;5.654;2023-05-10T13:19:21;21.20;99.90
40434;DHT22;26146;51.114;5.654;2023-05-10T13:23:22;21.70;99.90
40434;DHT22;26146;51.114;5.654;2023-05-10T13:27:23;22.00;99.90
40434;DHT22;26146;51.114;5.654;2023-05-10T13:31:24;21.80;99.90
40434;DHT22;26146;51.114;5.654;2023-05-10T13:35:25;21.70;99.90
40434;DHT22;26146;51.114;5.654;2023-05-10T13:39:27;21.30;99.90
40434;DHT22;26146;51.114;5.654;2023-05-10T13:43:29;22.00;99.90
40434;DHT22;26146;51.114;5.654;2023-05-10T13:47:30;22.20;99.90
40434;DHT22;26146;51.114;5.654;2023-05-10T13:51:31;22.50;99.40
40434;DHT22;26146;51.114;5.654;2023-05-10T13:55:32;22.50;99.00
40434;DHT22;26146;51.114;5.654;2023-05-10T13:59:34;22.30;99.30
40434;DHT22;26146;51.114;5.654;2023-05-10T14:03:35;22.40;99.20
40434;DHT22;26146;51.114;5.654;2023-05-10T14:07:36;21.90;99.20
40434;DHT22;26146;51.114;5.654;2023-05-10T14:11:37;21.20;99.90
40434;DHT22;26146;51.114;5.654;2023-05-10T14:15:42;21.20;99.90
40434;DHT22;26146;51.114;5.654;2023-05-10T14:19:43;21.40;99.90
40434;DHT22;26146;51.114;5.654;2023-05-10T14:23:44;21.40;99.90
40434;DHT22;26146;51.114;5.654;2023-05-10T14:27:45;21.30;99.90
40434;DHT22;26146;51.114;5.654;2023-05-10T14:31:46;21.20;99.90
40434;DHT22;26146;51.114;5.654;2023-05-10T14:35:47;21.20;99.90
40434;DHT22;26146;51.114;5.654;2023-05-10T14:39:49;20.60;99.90
40434;DHT22;26146;51.114;5.654;2023-05-10T14:43:50;19.70;99.90
40434;DHT22;26146;51.114;5.654;2023-05-10T14:47:51;19.40;99.90
40434;DHT22;26146;51.114;5.654;2023-05-10T14:51:52;19.40;99.90
40434;DHT22;26146;51.114;5.654;2023-05-10T14:55:53;19.80;99.90
40434;DHT22;26146;51.114;5.654;2023-05-10T14:59:54;20.00;99.90
40434;DHT22;26146;51.114;5.654;2023-05-10T15:03:55;20.10;99.90
40434;DHT22;26146;51.114;5.654;2023-05-10T15:07:56;20.00;99.90
40434;DHT22;26146;51.114;5.654;2023-05-10T15:11:57;20.20;99.90
40434;DHT22;26146;51.114;5.654;2023-05-10T15:15:58;20.40;99.90
40434;DHT22;26146;51.114;5.654;2023-05-10T15:20:00;20.70;99.90
40434;DHT22;26146;51.114;5.654;2023-05-10T15:24:04;20.40;99.90
40434;DHT22;26146;51.114;5.654;2023-05-10T15:28:05;20.50;99.90
40434;DHT22;26146;51.114;5.654;2023-05-10T15:32:07;20.70;99.90
40434;DHT22;26146;51.114;5.654;2023-05-10T15:36:08;20.50;99.90
40434;DHT22;26146;51.114;5.654;2023-05-10T15:40:09;20.60;99.90
40434;DHT22;26146;51.114;5.654;2023-05-10T15:44:10;20.80;99.90
40434;DHT22;26146;51.114;5.654;2023-05-10T15:48:11;20.70;99.90
40434;DHT22;26146;51.114;5.654;2023-05-10T15:52:12;20.90;99.90
40434;DHT22;26146;51.114;5.654;2023-05-10T15:56:14;20.80;99.90
40434;DHT22;26146;51.114;5.654;2023-05-10T16:00:16;20.80;99.90
40434;DHT22;26146;51.114;5.654;2023-05-10T16:04:17;20.80;99.90
40434;DHT22;26146;51.114;5.654;2023-05-10T16:08:18;20.70;99.90
40434;DHT22;26146;51.114;5.654;2023-05-10T16:12:19;20.60;99.90
40434;DHT22;26146;51.114;5.654;2023-05-10T16:16:20;20.50;99.90
40434;DHT22;26146;51.114;5.654;2023-05-10T16:20:22;20.60;99.90
40434;DHT22;26146;51.114;5.654;2023-05-10T16:24:24;20.60;99.90
40434;DHT22;26146;51.114;5.654;2023-05-10T16:28:25;20.70;99.90
40434;DHT22;26146;51.114;5.654;2023-05-10T16:32:27;20.30;99.90
40434;DHT22;26146;51.114;5.654;2023-05-10T16:36:28;20.40;99.90
40434;DHT22;26146;51.114;5.654;2023-05-10T16:40:29;20.30;99.90
40434;DHT22;26146;51.114;5.654;2023-05-10T16:44:31;19.60;99.90
40434;DHT22;26146;51.114;5.654;2023-05-10T16:48:32;19.00;99.90
40434;DHT22;26146;51.114;5.654;2023-05-10T16:52:34;18.80;99.90
40434;DHT22;26146;51.114;5.654;2023-05-10T16:56:35;18.60;99.90
40434;DHT22;26146;51.114;5.654;2023-05-10T17:00:37;18.70;99.90
40434;DHT22;26146;51.114;5.654;2023-05-10T17:04:38;18.50;99.90
40434;DHT22;26146;51.114;5.654;2023-05-10T17:08:39;18.30;99.90
40434;DHT22;26146;51.114;5.654;2023-05-10T17:12:40;18.30;99.90
40434;DHT22;26146;51.114;5.654;2023-05-10T17:16:41;18.30;99.90
40434;DHT22;26146;51.114;5.654;2023-05-10T17:20:43;18.00;99.90
40434;DHT22;26146;51.114;5.654;2023-05-10T17:24:44;17.80;99.90
40434;DHT22;26146;51.114;5.654;2023-05-10T17:28:46;17.80;99.90
40434;DHT22;26146;51.114;5.654;2023-05-10T17:32:47;17.70;99.90
40434;DHT22;26146;51.114;5.654;2023-05-10T17:36:48;17.30;99.90
40434;DHT22;26146;51.114;5.654;2023-05-10T17:40:50;17.00;99.90
40434;DHT22;26146;51.114;5.654;2023-05-10T17:44:51;16.80;99.90
40434;DHT22;26146;51.114;5.654;2023-05-10T17:48:52;16.60;99.90
40434;DHT22;26146;51.114;5.654;2023-05-10T17:52:53;16.40;99.90
40434;DHT22;26146;51.114;5.654;2023-05-10T17:56:54;16.20;99.90
40434;DHT22;26146;51.114;5.654;2023-05-10T18:00:57;16.30;99.90
40434;DHT22;26146;51.114;5.654;2023-05-10T18:04:58;16.00;99.90
40434;DHT22;26146;51.114;5.654;2023-05-10T18:09:01;15.70;99.90
40434;DHT22;26146;51.114;5.654;2023-05-10T18:13:02;15.50;99.90
40434;DHT22;26146;51.114;5.654;2023-05-10T18:17:04;15.30;99.90
40434;DHT22;26146;51.114;5.654;2023-05-10T18:21:05;15.30;99.90
40434;DHT22;26146;51.114;5.654;2023-05-10T18:25:07;15.20;99.90
40434;DHT22;26146;51.114;5.654;2023-05-10T18:29:08;15.10;99.90
40434;DHT22;26146;51.114;5.654;2023-05-10T18:33:09;15.10;99.90
40434;DHT22;26146;51.114;5.654;2023-05-10T18:37:11;14.90;99.90
40434;DHT22;26146;51.114;5.654;2023-05-10T18:41:12;15.00;99.90
40434;DHT22;26146;51.114;5.654;2023-05-10T18:45:14;15.00;99.90
40434;DHT22;26146;51.114;5.654;2023-05-10T18:49:15;15.00;99.90
40434;DHT22;26146;51.114;5.654;2023-05-10T18:53:16;14.80;99.90
40434;DHT22;26146;51.114;5.654;2023-05-10T18:57:17;15.00;99.90
40434;DHT22;26146;51.114;5.654;2023-05-10T19:01:20;15.20;99.90
40434;DHT22;26146;51.114;5.654;2023-05-10T19:05:22;15.20;99.90
40434;DHT22;26146;51.114;5.654;2023-05-10T19:09:29;15.10;99.90
40434;DHT22;26146;51.114;5.654;2023-05-10T19:13:31;15.30;99.90
40434;DHT22;26146;51.114;5.654;2023-05-10T19:17:33;15.40;99.90
40434;DHT22;26146;51.114;5.654;2023-05-10T19:21:36;15.40;99.90
40434;DHT22;26146;51.114;5.654;2023-05-10T19:25:37;15.40;99.90
40434;DHT22;26146;51.114;5.654;2023-05-10T19:29:39;15.70;99.90
40434;DHT22;26146;51.114;5.654;2023-05-10T19:33:40;15.70;99.90
40434;DHT22;26146;51.114;5.654;2023-05-10T19:37:41;15.80;99.90
40434;DHT22;26146;51.114;5.654;2023-05-10T19:41:46;15.90;99.90
40434;DHT22;26146;51.114;5.654;2023-05-10T19:45:49;15.80;99.90
40434;DHT22;26146;51.114;5.654;2023-05-10T19:49:50;15.60;99.90
40434;DHT22;26146;51.114;5.654;2023-05-10T19:53:51;15.60;99.90
40434;DHT22;26146;51.114;5.654;2023-05-10T19:57:52;15.30;99.90
40434;DHT22;26146;51.114;5.654;2023-05-10T20:01:53;15.20;99.90
40434;DHT22;26146;51.114;5.654;2023-05-10T20:05:54;15.30;99.90
40434;DHT22;26146;51.114;5.654;2023-05-10T20:09:56;15.30;99.90
40434;DHT22;26146;51.114;5.654;2023-05-10T20:13:57;15.30;99.90
40434;DHT22;26146;51.114;5.654;2023-05-10T20:17:58;15.10;99.90
40434;DHT22;26146;51.114;5.654;2023-05-10T20:21:59;15.00;99.90
40434;DHT22;26146;51.114;5.654;2023-05-10T20:26:01;14.90;99.90
40434;DHT22;26146;51.114;5.654;2023-05-10T20:30:03;14.80;99.90
40434;DHT22;26146;51.114;5.654;2023-05-10T20:34:04;15.00;99.90
40434;DHT22;26146;51.114;5.654;2023-05-10T20:38:08;14.90;99.90
40434;DHT22;26146;51.114;5.654;2023-05-10T20:42:09;14.80;99.90
40434;DHT22;26146;51.114;5.654;2023-05-10T20:46:10;14.90;99.90
40434;DHT22;26146;51.114;5.654;2023-05-10T20:50:11;14.90;99.90
40434;DHT22;26146;51.114;5.654;2023-05-10T20:54:13;14.90;99.90
40434;DHT22;26146;51.114;5.654;2023-05-10T20:58:14;15.00;99.90
40434;DHT22;26146;51.114;5.654;2023-05-10T21:02:15;15.00;99.90
40434;DHT22;26146;51.114;5.654;2023-05-10T21:06:16;15.10;99.90
40434;DHT22;26146;51.114;5.654;2023-05-10T21:10:17;15.00;99.90
40434;DHT22;26146;51.114;5.654;2023-05-10T21:14:19;15.00;99.90
40434;DHT22;26146;51.114;5.654;2023-05-10T21:18:20;15.00;99.90
40434;DHT22;26146;51.114;5.654;2023-05-10T21:22:21;15.00;99.90
40434;DHT22;26146;51.114;5.654;2023-05-10T21:26:23;15.00;99.90
40434;DHT22;26146;51.114;5.654;2023-05-10T21:30:24;15.00;99.90
40434;DHT22;26146;51.114;5.654;2023-05-10T21:34:25;15.10;99.90
40434;DHT22;26146;51.114;5.654;2023-05-10T21:38:27;15.10;99.90
40434;DHT22;26146;51.114;5.654;2023-05-10T21:42:29;15.10;99.90
40434;DHT22;26146;51.114;5.654;2023-05-10T21:46:30;15.00;99.90
40434;DHT22;26146;51.114;5.654;2023-05-10T21:50:31;15.00;99.90
40434;DHT22;26146;51.114;5.654;2023-05-10T21:54:32;15.10;99.90
40434;DHT22;26146;51.114;5.654;2023-05-10T21:58:34;15.20;99.90
40434;DHT22;26146;51.114;5.654;2023-05-10T22:02:35;15.20;99.90
40434;DHT22;26146;51.114;5.654;2023-05-10T22:06:36;15.20;99.90
40434;DHT22;26146;51.114;5.654;2023-05-10T22:10:37;15.10;99.90
40434;DHT22;26146;51.114;5.654;2023-05-10T22:14:38;15.10;99.90
40434;DHT22;26146;51.114;5.654;2023-05-10T22:18:39;15.10;99.90
40434;DHT22;26146;51.114;5.654;2023-05-10T22:22:40;15.10;99.90
40434;DHT22;26146;51.114;5.654;2023-05-10T22:26:41;15.10;99.90
40434;DHT22;26146;51.114;5.654;2023-05-10T22:30:43;15.20;99.90
40434;DHT22;26146;51.114;5.654;2023-05-10T22:34:44;15.20;99.90
40434;DHT22;26146;51.114;5.654;2023-05-10T22:38:45;15.10;99.90
40434;DHT22;26146;51.114;5.654;2023-05-10T22:42:46;15.00;99.90
40434;DHT22;26146;51.114;5.654;2023-05-10T22:46:47;15.10;99.90
40434;DHT22;26146;51.114;5.654;2023-05-10T22:50:48;15.00;99.90
40434;DHT22;26146;51.114;5.654;2023-05-10T22:54:49;15.10;99.90
40434;DHT22;26146;51.114;5.654;2023-05-10T22:58:50;15.10;99.90
40434;DHT22;26146;51.114;5.654;2023-05-10T23:02:52;15.10;99.90
40434;DHT22;26146;51.114;5.654;2023-05-10T23:06:53;15.10;99.90
40434;DHT22;26146;51.114;5.654;2023-05-10T23:10:57;15.00;99.90
40434;DHT22;26146;51.114;5.654;2023-05-10T23:14:58;15.00;99.90
40434;DHT22;26146;51.114;5.654;2023-05-10T23:18:59;15.00;99.90
40434;DHT22;26146;51.114;5.654;2023-05-10T23:23:00;14.90;99.90
40434;DHT22;26146;51.114;5.654;2023-05-10T23:27:01;14.90;99.90
40434;DHT22;26146;51.114;5.654;2023-05-10T23:31:03;14.90;99.90
40434;DHT22;26146;51.114;5.654;2023-05-10T23:35:05;14.90;99.90
40434;DHT22;26146;51.114;5.654;2023-05-10T23:39:06;14.90;99.90
40434;DHT22;26146;51.114;5.654;2023-05-10T23:43:07;14.90;99.90
40434;DHT22;26146;51.114;5.654;2023-05-10T23:47:09;14.80;99.90
40434;DHT22;26146;51.114;5.654;2023-05-10T23:51:10;14.80;99.90
40434;DHT22;26146;51.114;5.654;2023-05-10T23:55:11;14.90;99.90
40434;DHT22;26146;51.114;5.654;2023-05-10T23:59:12;14.80;99.90
